sensor_id;sensor_type;location;lat;lon;timestamp;P1;durP1;ratioP1;P2;durP2;ratioP2
44516;SDS011;30223;17.182;-96.766;2023-04-15T04:51:48;10.43;;;2.88;;
44516;SDS011;30223;17.182;-96.766;2023-04-15T04:54:15;5.72;;;3.55;;
44516;SDS011;30223;17.182;-96.766;2023-04-15T04:56:42;2.83;;;2.08;;
44516;SDS011;30223;17.182;-96.766;2023-04-15T04:59:08;3.67;;;2.78;;
44516;SDS011;30223;17.182;-96.766;2023-04-15T05:01:35;2.72;;;2.50;;
44516;SDS011;30223;17.182;-96.766;2023-04-15T05:04:02;2.85;;;2.53;;
44516;SDS011;30223;17.182;-96.766;2023-04-15T05:06:29;3.17;;;2.88;;
44516;SDS011;30223;17.182;-96.766;2023-04-15T05:08:56;3.78;;;2.85;;
44516;SDS011;30223;17.182;-96.766;2023-04-15T05:11:23;3.17;;;2.88;;
44516;SDS011;30223;17.182;-96.766;2023-04-15T05:13:50;3.53;;;3.22;;
44516;SDS011;30223;17.182;-96.766;2023-04-15T05:16:17;3.15;;;2.30;;
44516;SDS011;30223;17.182;-96.766;2023-04-15T05:18:44;4.35;;;3.40;;
44516;SDS011;30223;17.182;-96.766;2023-04-15T18:06:57;1.58;;;1.05;;
44516;SDS011;30223;17.182;-96.766;2023-04-15T18:09:24;1.85;;;1.13;;
44516;SDS011;30223;17.182;-96.766;2023-04-15T18:11:51;1.58;;;1.20;;
44516;SDS011;30223;17.182;-96.766;2023-04-15T18:14:18;1.27;;;1.00;;
44516;SDS011;30223;17.182;-96.766;2023-04-15T18:16:44;1.40;;;1.10;;
44516;SDS011;30223;17.182;-96.766;2023-04-15T18:19:12;1.23;;;1.13;;
44516;SDS011;30223;17.182;-96.766;2023-04-15T18:21:38;1.90;;;1.15;;
44516;SDS011;30223;17.182;-96.766;2023-04-15T18:24:05;1.60;;;1.50;;
44516;SDS011;30223;17.182;-96.766;2023-04-15T18:26:32;1.42;;;1.08;;
44516;SDS011;30223;17.182;-96.766;2023-04-15T18:28:58;1.20;;;1.10;;
44516;SDS011;30223;17.182;-96.766;2023-04-15T18:31:25;1.65;;;1.55;;
44516;SDS011;30223;17.182;-96.766;2023-04-15T18:50:15;1.40;;;1.30;;
44516;SDS011;30223;17.182;-96.766;2023-04-15T18:52:42;1.65;;;1.55;;
44516;SDS011;30223;17.182;-96.766;2023-04-15T18:55:08;1.60;;;1.30;;
44516;SDS011;30223;17.182;-96.766;2023-04-15T18:57:35;1.73;;;1.30;;
44516;SDS011;30223;17.182;-96.766;2023-04-15T19:00:09;1.23;;;0.95;;
44516;SDS011;30223;17.182;-96.766;2023-04-15T19:02:37;1.27;;;0.93;;
44516;SDS011;30223;17.182;-96.766;2023-04-15T19:05:04;2.25;;;1.27;;
44516;SDS011;30223;17.182;-96.766;2023-04-15T19:07:31;2.45;;;1.42;;
44516;SDS011;30223;17.182;-96.766;2023-04-15T19:09:58;2.17;;;1.33;;
44516;SDS011;30223;17.182;-96.766;2023-04-15T19:12:25;1.63;;;1.48;;
44516;SDS011;30223;17.182;-96.766;2023-04-15T19:14:52;2.22;;;1.27;;
44516;SDS011;30223;17.182;-96.766;2023-04-15T19:17:18;1.95;;;1.33;;
44516;SDS011;30223;17.182;-96.766;2023-04-15T19:19:45;1.65;;;1.30;;
44516;SDS011;30223;17.182;-96.766;2023-04-15T19:22:12;1.40;;;1.30;;
44516;SDS011;30223;17.182;-96.766;2023-04-15T19:24:38;2.13;;;1.55;;
44516;SDS011;30223;17.182;-96.766;2023-04-15T19:27:05;1.23;;;1.10;;
44516;SDS011;30223;17.182;-96.766;2023-04-15T19:29:32;1.98;;;1.30;;
44516;SDS011;30223;17.182;-96.766;2023-04-15T19:31:59;1.20;;;1.10;;
44516;SDS011;30223;17.182;-96.766;2023-04-15T19:34:25;1.52;;;1.20;;
44516;SDS011;30223;17.182;-96.766;2023-04-15T19:36:52;2.42;;;1.50;;
44516;SDS011;30223;17.182;-96.766;2023-04-15T19:39:19;1.60;;;1.23;;
44516;SDS011;30223;17.182;-96.766;2023-04-15T19:41:45;2.03;;;1.63;;
44516;SDS011;30223;17.182;-96.766;2023-04-15T20:01:02;1.15;;;0.93;;
44516;SDS011;30223;17.182;-96.766;2023-04-15T20:03:29;1.35;;;1.13;;
44516;SDS011;30223;17.182;-96.766;2023-04-15T20:05:56;1.40;;;1.30;;
44516;SDS011;30223;17.182;-96.766;2023-04-15T20:08:22;2.00;;;1.27;;
44516;SDS011;30223;17.182;-96.766;2023-04-15T20:10:49;1.58;;;1.00;;
44516;SDS011;30223;17.182;-96.766;2023-04-15T20:13:16;2.08;;;1.27;;
44516;SDS011;30223;17.182;-96.766;2023-04-15T20:15:42;2.13;;;1.13;;
44516;SDS011;30223;17.182;-96.766;2023-04-15T20:18:09;1.58;;;1.27;;
44516;SDS011;30223;17.182;-96.766;2023-04-15T20:20:38;1.20;;;1.10;;
44516;SDS011;30223;17.182;-96.766;2023-04-15T20:23:05;0.90;;;0.90;;
44516;SDS011;30223;17.182;-96.766;2023-04-15T20:25:32;1.70;;;1.38;;
44516;SDS011;30223;17.182;-96.766;2023-04-15T20:27:58;1.75;;;1.30;;
44516;SDS011;30223;17.182;-96.766;2023-04-15T20:30:25;1.83;;;1.38;;
44516;SDS011;30223;17.182;-96.766;2023-04-15T20:32:53;1.33;;;1.17;;
44516;SDS011;30223;17.182;-96.766;2023-04-15T20:35:20;1.48;;;1.25;;
44516;SDS011;30223;17.182;-96.766;2023-04-15T20:37:47;1.40;;;1.15;;
44516;SDS011;30223;17.182;-96.766;2023-04-15T20:40:14;1.48;;;1.13;;
44516;SDS011;30223;17.182;-96.766;2023-04-15T20:42:41;1.63;;;1.20;;
44516;SDS011;30223;17.182;-96.766;2023-04-15T20:45:08;1.20;;;1.10;;
44516;SDS011;30223;17.182;-96.766;2023-04-15T20:47:35;1.70;;;1.60;;
44516;SDS011;30223;17.182;-96.766;2023-04-15T20:50:01;1.17;;;1.08;;
44516;SDS011;30223;17.182;-96.766;2023-04-15T20:52:28;1.25;;;0.77;;
44516;SDS011;30223;17.182;-96.766;2023-04-15T20:54:55;1.95;;;1.70;;
44516;SDS011;30223;17.182;-96.766;2023-04-15T20:57:22;1.67;;;1.23;;
44516;SDS011;30223;17.182;-96.766;2023-04-15T20:59:51;0.93;;;0.93;;
44516;SDS011;30223;17.182;-96.766;2023-04-15T21:02:17;1.15;;;1.05;;
44516;SDS011;30223;17.182;-96.766;2023-04-15T21:04:44;1.35;;;1.13;;
44516;SDS011;30223;17.182;-96.766;2023-04-15T21:07:11;1.98;;;1.52;;
44516;SDS011;30223;17.182;-96.766;2023-04-15T21:09:38;1.73;;;1.35;;
44516;SDS011;30223;17.182;-96.766;2023-04-15T21:12:05;3.08;;;1.33;;
44516;SDS011;30223;17.182;-96.766;2023-04-15T21:14:32;1.40;;;1.30;;
44516;SDS011;30223;17.182;-96.766;2023-04-15T21:17:02;1.90;;;1.00;;
44516;SDS011;30223;17.182;-96.766;2023-04-15T21:19:31;1.13;;;1.13;;
44516;SDS011;30223;17.182;-96.766;2023-04-15T21:21:58;1.40;;;1.30;;
44516;SDS011;30223;17.182;-96.766;2023-04-15T21:24:25;1.20;;;1.10;;
44516;SDS011;30223;17.182;-96.766;2023-04-15T21:26:52;2.92;;;1.30;;
44516;SDS011;30223;17.182;-96.766;2023-04-15T21:29:18;1.20;;;1.10;;
44516;SDS011;30223;17.182;-96.766;2023-04-15T21:31:45;1.60;;;1.42;;
44516;SDS011;30223;17.182;-96.766;2023-04-15T21:34:12;1.42;;;1.10;;
44516;SDS011;30223;17.182;-96.766;2023-04-15T21:36:38;1.35;;;1.25;;
44516;SDS011;30223;17.182;-96.766;2023-04-15T21:39:05;2.30;;;1.80;;
44516;SDS011;30223;17.182;-96.766;2023-04-15T21:41:31;1.30;;;1.20;;
44516;SDS011;30223;17.182;-96.766;2023-04-15T21:43:58;1.27;;;1.13;;
44516;SDS011;30223;17.182;-96.766;2023-04-15T21:46:25;1.85;;;1.50;;
44516;SDS011;30223;17.182;-96.766;2023-04-15T21:48:51;1.55;;;1.45;;
44516;SDS011;30223;17.182;-96.766;2023-04-15T21:51:18;1.27;;;1.17;;
44516;SDS011;30223;17.182;-96.766;2023-04-15T21:53:45;1.40;;;1.30;;
44516;SDS011;30223;17.182;-96.766;2023-04-15T21:56:12;1.92;;;1.38;;
44516;SDS011;30223;17.182;-96.766;2023-04-15T21:58:39;1.88;;;1.27;;
44516;SDS011;30223;17.182;-96.766;2023-04-15T22:01:08;1.45;;;1.35;;
44516;SDS011;30223;17.182;-96.766;2023-04-15T22:03:35;1.67;;;1.10;;
44516;SDS011;30223;17.182;-96.766;2023-04-15T22:06:02;1.60;;;1.30;;
44516;SDS011;30223;17.182;-96.766;2023-04-15T22:08:29;1.15;;;1.05;;
44516;SDS011;30223;17.182;-96.766;2023-04-15T22:10:57;2.70;;;1.20;;
44516;SDS011;30223;17.182;-96.766;2023-04-15T22:13:24;1.73;;;1.30;;
44516;SDS011;30223;17.182;-96.766;2023-04-15T22:15:50;1.52;;;1.42;;
44516;SDS011;30223;17.182;-96.766;2023-04-15T22:18:17;1.45;;;1.33;;
44516;SDS011;30223;17.182;-96.766;2023-04-15T22:20:43;1.30;;;1.00;;
44516;SDS011;30223;17.182;-96.766;2023-04-15T22:23:10;1.90;;;1.35;;
44516;SDS011;30223;17.182;-96.766;2023-04-15T22:25:37;1.27;;;1.17;;
44516;SDS011;30223;17.182;-96.766;2023-04-15T22:28:04;1.17;;;1.05;;
44516;SDS011;30223;17.182;-96.766;2023-04-15T22:30:39;1.70;;;1.60;;
44516;SDS011;30223;17.182;-96.766;2023-04-15T22:33:07;1.15;;;0.93;;
44516;SDS011;30223;17.182;-96.766;2023-04-15T22:35:34;1.38;;;1.27;;
44516;SDS011;30223;17.182;-96.766;2023-04-15T22:38:02;1.23;;;1.13;;
44516;SDS011;30223;17.182;-96.766;2023-04-15T22:40:29;2.50;;;1.65;;
44516;SDS011;30223;17.182;-96.766;2023-04-15T22:42:56;1.50;;;1.40;;
44516;SDS011;30223;17.182;-96.766;2023-04-15T22:45:22;1.35;;;1.23;;
44516;SDS011;30223;17.182;-96.766;2023-04-15T22:47:49;1.50;;;1.10;;
44516;SDS011;30223;17.182;-96.766;2023-04-15T22:50:15;2.22;;;1.20;;
44516;SDS011;30223;17.182;-96.766;2023-04-15T22:52:42;1.77;;;1.48;;
44516;SDS011;30223;17.182;-96.766;2023-04-15T22:55:10;1.40;;;1.30;;
44516;SDS011;30223;17.182;-96.766;2023-04-15T22:57:37;1.40;;;1.10;;
44516;SDS011;30223;17.182;-96.766;2023-04-15T23:00:05;1.58;;;1.20;;
44516;SDS011;30223;17.182;-96.766;2023-04-15T23:02:32;1.75;;;1.65;;
44516;SDS011;30223;17.182;-96.766;2023-04-15T23:04:59;1.42;;;1.33;;
44516;SDS011;30223;17.182;-96.766;2023-04-15T23:07:25;1.67;;;1.10;;
44516;SDS011;30223;17.182;-96.766;2023-04-15T23:09:52;1.42;;;1.10;;
44516;SDS011;30223;17.182;-96.766;2023-04-15T23:12:19;1.20;;;1.10;;
44516;SDS011;30223;17.182;-96.766;2023-04-15T23:14:45;1.42;;;1.13;;
44516;SDS011;30223;17.182;-96.766;2023-04-15T23:17:12;1.88;;;1.42;;
44516;SDS011;30223;17.182;-96.766;2023-04-15T23:19:39;1.73;;;1.63;;
44516;SDS011;30223;17.182;-96.766;2023-04-15T23:22:05;1.38;;;1.02;;
44516;SDS011;30223;17.182;-96.766;2023-04-15T23:27:00;1.70;;;1.33;;
44516;SDS011;30223;17.182;-96.766;2023-04-15T23:29:28;1.65;;;1.50;;
44516;SDS011;30223;17.182;-96.766;2023-04-15T23:31:55;1.27;;;1.17;;
44516;SDS011;30223;17.182;-96.766;2023-04-15T23:34:22;1.63;;;1.10;;
44516;SDS011;30223;17.182;-96.766;2023-04-15T23:36:48;1.45;;;1.30;;
44516;SDS011;30223;17.182;-96.766;2023-04-15T23:39:15;1.30;;;1.20;;
44516;SDS011;30223;17.182;-96.766;2023-04-15T23:41:42;1.70;;;1.40;;
44516;SDS011;30223;17.182;-96.766;2023-04-15T23:44:08;2.33;;;1.10;;
44516;SDS011;30223;17.182;-96.766;2023-04-15T23:46:35;2.15;;;1.30;;
44516;SDS011;30223;17.182;-96.766;2023-04-15T23:49:01;1.73;;;1.63;;
44516;SDS011;30223;17.182;-96.766;2023-04-15T23:51:28;1.52;;;1.42;;
44516;SDS011;30223;17.182;-96.766;2023-04-15T23:53:55;1.60;;;1.13;;
44516;SDS011;30223;17.182;-96.766;2023-04-15T23:56:21;1.88;;;1.20;;
44516;SDS011;30223;17.182;-96.766;2023-04-15T23:58:48;1.63;;;1.35;;
